createdAt,value
2023-05-05T00:01:36.676Z,99255.02
2023-05-05T00:06:37.658Z,99237.08
2023-05-05T00:11:38.668Z,99253.69
2023-05-05T00:16:39.825Z,99251.29
2023-05-05T00:21:40.820Z,99249.17
2023-05-05T00:26:41.853Z,99253.31
2023-05-05T00:31:42.964Z,99249.14
2023-05-05T00:36:43.996Z,99249.87
2023-05-05T00:41:45.021Z,99244.77
2023-05-05T00:46:46.182Z,99242.67
2023-05-05T00:51:47.266Z,99239.20
2023-05-05T00:56:50.153Z,99235.08
2023-05-05T01:01:51.437Z,99232.42
2023-05-05T01:07:34.054Z,99226.08
2023-05-05T01:12:46.042Z,99228.96
2023-05-05T01:18:13.197Z,99221.77
2023-05-05T01:23:26.530Z,99223.38
2023-05-05T01:28:56.015Z,99230.27
2023-05-05T01:34:03.512Z,99225.94
2023-05-05T01:39:09.648Z,99216.06
2023-05-05T01:44:13.985Z,99209.77
2023-05-05T01:49:15.669Z,99215.56
2023-05-05T01:54:18.575Z,99211.12
2023-05-05T01:59:21.027Z,99212.97
2023-05-05T02:04:23.582Z,99217.93
2023-05-05T02:09:27.613Z,99214.36
2023-05-05T02:14:29.141Z,99208.47
2023-05-05T02:19:38.103Z,99217.45
2023-05-05T02:24:39.152Z,99222.42
2023-05-05T02:29:49.654Z,99227.28
2023-05-05T02:34:52.758Z,99229.30
2023-05-05T02:39:59.575Z,99228.80
2023-05-05T02:45:09.343Z,99228.87
2023-05-05T02:50:15.091Z,99226.71
2023-05-05T02:55:21.961Z,99229.46
2023-05-05T03:00:42.090Z,99228.95
2023-05-05T03:05:59.982Z,99208.62
2023-05-05T03:11:07.080Z,99220.28
2023-05-05T03:16:10.885Z,99223.92
2023-05-05T03:21:12.482Z,99221.73
2023-05-05T03:26:17.806Z,99224.75
2023-05-05T03:31:19.129Z,99225.64
2023-05-05T03:36:39.104Z,99223.44
2023-05-05T03:41:50.447Z,99225.66
2023-05-05T03:46:52.687Z,99229.36
2023-05-05T03:51:54.150Z,99226.31
2023-05-05T03:56:55.614Z,99219.80
2023-05-05T04:01:56.715Z,99222.29
2023-05-05T04:06:57.984Z,99222.71
2023-05-05T04:11:59.343Z,99226.36
2023-05-05T04:17:00.647Z,99230.83
2023-05-05T04:22:01.951Z,99229.67
2023-05-05T04:27:03.933Z,99225.44
2023-05-05T04:32:05.854Z,99228.34
2023-05-05T04:37:06.943Z,99236.22
2023-05-05T04:42:08.776Z,99241.16
2023-05-05T04:47:11.471Z,99256.80
2023-05-05T04:52:15.282Z,99262.23
2023-05-05T04:57:16.397Z,99253.46
2023-05-05T05:02:17.766Z,99256.20
2023-05-05T05:07:18.869Z,99262.38
2023-05-05T05:12:20.438Z,99270.41
2023-05-05T05:17:23.085Z,99272.71
2023-05-05T05:22:24.202Z,99278.90
2023-05-05T05:27:25.406Z,99290.55
2023-05-05T05:32:27.241Z,99289.40
2023-05-05T05:37:30.310Z,99294.66
2023-05-05T05:42:31.523Z,99300.14
2023-05-05T05:47:33.268Z,99298.03
2023-05-05T05:52:37.825Z,99292.50
2023-05-05T05:57:39.602Z,99287.06
2023-05-05T06:02:41.772Z,99285.13
2023-05-05T06:07:45.749Z,99287.05
2023-05-05T06:12:47.384Z,99285.92
2023-05-05T06:17:48.694Z,99283.61
2023-05-05T06:22:49.839Z,99282.30
2023-05-05T06:27:51.629Z,99284.95
2023-05-05T06:32:53.592Z,99285.89
2023-05-05T06:37:54.616Z,99287.70
2023-05-05T06:42:55.868Z,99290.88
2023-05-05T06:48:00.953Z,99281.69
2023-05-05T06:53:01.998Z,99277.26
2023-05-05T06:58:02.961Z,99270.58
2023-05-05T07:03:04.195Z,99276.41
2023-05-05T07:08:05.860Z,99277.20
2023-05-05T07:13:09.786Z,99272.45
2023-05-05T07:18:12.660Z,99270.76
2023-05-05T07:23:13.729Z,99273.48
2023-05-05T07:28:14.820Z,99272.77
2023-05-05T07:33:17.761Z,99270.66
2023-05-05T07:38:18.802Z,99273.81
2023-05-05T07:43:19.858Z,99270.23
2023-05-05T07:48:20.935Z,99270.02
2023-05-05T07:53:21.946Z,99262.69
2023-05-05T07:58:23.007Z,99260.62
2023-05-05T08:03:24.317Z,99260.42
2023-05-05T08:08:26.260Z,99258.33
2023-05-05T08:13:29.551Z,99257.42
2023-05-05T08:18:30.697Z,99254.84
2023-05-05T08:23:32.956Z,99251.67
2023-05-05T08:28:35.692Z,99251.92
2023-05-05T08:33:36.700Z,99250.26
2023-05-05T08:38:37.695Z,99249.83
2023-05-05T08:43:38.950Z,99248.05
2023-05-05T08:48:42.614Z,99240.66
2023-05-05T08:53:55.748Z,99241.54
2023-05-05T08:58:57.095Z,99235.30
2023-05-05T09:03:58.657Z,99235.98
2023-05-05T09:09:00.658Z,99232.08
2023-05-05T09:14:01.690Z,99228.45
2023-05-05T09:19:04.159Z,99230.02
2023-05-05T09:24:12.217Z,99239.46
2023-05-05T09:29:20.330Z,99243.64
2023-05-05T09:34:21.456Z,99242.71
2023-05-05T09:39:22.560Z,99239.88
2023-05-05T09:44:37.189Z,99237.38
2023-05-05T09:49:38.434Z,99238.61
2023-05-05T09:54:39.615Z,99236.56
2023-05-05T10:00:01.705Z,99239.00
2023-05-05T10:05:12.052Z,99242.23
2023-05-05T10:10:15.492Z,99238.30
2023-05-05T10:15:17.081Z,99232.60
2023-05-05T10:20:20.439Z,99226.13
2023-05-05T10:25:30.295Z,99216.14
2023-05-05T10:30:34.592Z,99212.04
2023-05-05T10:35:39.648Z,99215.00
2023-05-05T10:40:45.151Z,99206.88
2023-05-05T10:45:46.355Z,99207.80
2023-05-05T10:50:52.985Z,99198.04
2023-05-05T10:56:29.489Z,99197.30
2023-05-05T11:01:32.338Z,99197.75
2023-05-05T11:06:33.601Z,99189.84
2023-05-05T11:12:04.516Z,99192.43
2023-05-05T11:17:54.983Z,99181.46
2023-05-05T11:23:02.257Z,99166.13
2023-05-05T11:28:10.804Z,99177.10
2023-05-05T11:33:37.461Z,99169.92
2023-05-05T11:38:38.443Z,99164.68
2023-05-05T11:43:41.034Z,99164.55
2023-05-05T11:48:49.445Z,99161.63
2023-05-05T11:53:50.485Z,99158.50
2023-05-05T11:59:10.542Z,99158.52
2023-05-05T12:04:13.078Z,99150.43
2023-05-05T12:09:18.375Z,99147.23
2023-05-05T12:14:20.043Z,99140.45
2023-05-05T12:19:21.379Z,99139.48
2023-05-05T12:24:22.441Z,99135.52
2023-05-05T12:29:28.421Z,99134.50
2023-05-05T12:34:30.614Z,99136.07
2023-05-05T12:39:38.123Z,99132.94
2023-05-05T12:44:40.126Z,99127.63
2023-05-05T12:49:48.760Z,99120.92
2023-05-05T12:54:56.380Z,99114.25
2023-05-05T12:59:57.641Z,99109.59
2023-05-05T13:04:58.664Z,99104.00
2023-05-05T13:10:10.548Z,99100.13
2023-05-05T13:15:11.826Z,99093.81
2023-05-05T13:20:13.343Z,99085.52
2023-05-05T13:25:14.480Z,99084.20
2023-05-05T13:30:15.487Z,99076.24
2023-05-05T13:35:16.811Z,99072.61
2023-05-05T13:40:17.920Z,99066.65
2023-05-05T13:45:19.062Z,99057.40
2023-05-05T13:50:20.397Z,99050.05
2023-05-05T13:55:21.475Z,99021.52
2023-05-05T14:00:22.658Z,99039.64
2023-05-05T14:05:23.647Z,99038.71
2023-05-05T14:10:25.557Z,99032.41
2023-05-05T14:15:26.987Z,99033.05
2023-05-05T14:20:28.258Z,99033.64
2023-05-05T14:25:30.486Z,99031.27
2023-05-05T14:30:31.830Z,99023.89
2023-05-05T14:35:32.837Z,99024.02
2023-05-05T14:40:33.837Z,99022.69
2023-05-05T14:45:34.817Z,99020.91
2023-05-05T14:50:35.748Z,99025.11
2023-05-05T14:55:37.201Z,99028.23
2023-05-05T15:00:38.304Z,99030.52
2023-05-05T15:05:39.401Z,99029.27
2023-05-05T15:10:40.512Z,99018.85
2023-05-05T15:15:41.678Z,99015.38
2023-05-05T15:20:42.849Z,99019.00
2023-05-05T15:25:43.971Z,99015.08
2023-05-05T15:30:45.130Z,99009.73
2023-05-05T15:35:46.159Z,99007.87
2023-05-05T15:40:49.538Z,99008.21
2023-05-05T15:45:53.254Z,99003.25
2023-05-05T15:50:54.230Z,98997.98
2023-05-05T15:55:55.223Z,98998.04
2023-05-05T16:00:56.336Z,98999.52
2023-05-05T16:05:57.399Z,98996.24
2023-05-05T16:10:58.452Z,98995.21
2023-05-05T16:15:59.547Z,98999.82
2023-05-05T16:21:00.649Z,98996.45
2023-05-05T16:26:03.358Z,98996.83
2023-05-05T16:31:04.828Z,98999.17
2023-05-05T16:36:14.683Z,98998.35
2023-05-05T16:41:15.717Z,98998.77
2023-05-05T16:46:16.867Z,98995.13
2023-05-05T16:51:17.906Z,98993.26
2023-05-05T16:56:18.880Z,98996.17
2023-05-05T17:01:19.957Z,98997.64
2023-05-05T17:06:21.298Z,98995.83
2023-05-05T17:11:22.344Z,98999.54
2023-05-05T17:16:23.391Z,99003.89
2023-05-05T17:21:24.563Z,99009.21
2023-05-05T17:26:25.545Z,99012.27
2023-05-05T17:31:26.573Z,99016.70
2023-05-05T17:36:27.739Z,99020.73
2023-05-05T17:41:28.750Z,99027.85
2023-05-05T17:46:29.936Z,99033.55
2023-05-05T17:51:31.515Z,99038.95
2023-05-05T17:56:34.042Z,99036.34
2023-05-05T18:01:35.219Z,99037.70
2023-05-05T18:06:36.191Z,99037.50
2023-05-05T18:11:37.185Z,99028.88
2023-05-05T18:16:38.259Z,99048.00
2023-05-05T18:21:39.264Z,99043.95
2023-05-05T18:26:40.749Z,99049.36
2023-05-05T18:31:44.389Z,99046.34
2023-05-05T18:36:46.273Z,99047.99
2023-05-05T18:41:47.278Z,99051.66
2023-05-05T18:46:48.296Z,99059.98
2023-05-05T18:51:49.517Z,99062.39
2023-05-05T18:56:50.481Z,99070.25
2023-05-05T19:01:51.615Z,99076.73
2023-05-05T19:06:52.855Z,99077.04
2023-05-05T19:11:53.886Z,99078.20
2023-05-05T19:16:55.273Z,99082.33
2023-05-05T19:21:57.350Z,99074.71
2023-05-05T19:26:58.501Z,99068.27
2023-05-05T19:31:59.572Z,99063.55
2023-05-05T19:37:00.687Z,99064.52
2023-05-05T19:42:01.858Z,99065.84
2023-05-05T19:47:04.400Z,99066.30
2023-05-05T19:52:05.448Z,99065.02
2023-05-05T19:57:06.606Z,99059.77
2023-05-05T20:02:11.645Z,99053.45
2023-05-05T20:07:12.693Z,99060.52
2023-05-05T20:12:13.891Z,99056.92
2023-05-05T20:17:19.181Z,99049.71
2023-05-05T20:22:20.511Z,99041.64
2023-05-05T20:27:21.582Z,99041.64
2023-05-05T20:32:22.546Z,99034.48
2023-05-05T20:37:26.238Z,99035.55
2023-05-05T20:42:28.800Z,99030.96
2023-05-05T20:47:30.017Z,99029.99
2023-05-05T20:52:33.091Z,99029.86
2023-05-05T20:57:34.210Z,99027.52
2023-05-05T21:02:35.495Z,99028.95
2023-05-05T21:07:37.368Z,99033.45
2023-05-05T21:12:40.264Z,99029.86
2023-05-05T21:17:45.715Z,99025.42
2023-05-05T21:22:46.835Z,99021.49
2023-05-05T21:27:48.343Z,99012.76
2023-05-05T21:32:50.548Z,99007.27
2023-05-05T21:37:51.642Z,98996.66
2023-05-05T21:42:53.202Z,98991.02
2023-05-05T21:47:58.901Z,98994.11
2023-05-05T21:53:01.989Z,98993.23
2023-05-05T21:58:02.937Z,98992.20
2023-05-05T22:03:05.781Z,98995.60
2023-05-05T22:08:07.450Z,98994.20
2023-05-05T22:13:09.710Z,98991.77
2023-05-05T22:18:10.740Z,98998.77
2023-05-05T22:23:13.217Z,98997.35
2023-05-05T22:28:24.267Z,98992.80
2023-05-05T22:33:26.675Z,98996.79
2023-05-05T22:38:28.331Z,98992.15
2023-05-05T22:43:30.002Z,98982.70
2023-05-05T22:48:31.738Z,98975.01
2023-05-05T22:53:33.389Z,98976.55
2023-05-05T22:58:36.039Z,98979.27
2023-05-05T23:03:38.197Z,98975.69
2023-05-05T23:08:41.950Z,98974.14
2023-05-05T23:13:49.452Z,98968.16
2023-05-05T23:18:51.172Z,98972.77
2023-05-05T23:23:55.010Z,98978.58
2023-05-05T23:28:56.897Z,98978.39
2023-05-05T23:33:58.514Z,98979.21
2023-05-05T23:39:01.766Z,98977.10
2023-05-05T23:44:23.582Z,98975.09
2023-05-05T23:49:26.823Z,98965.79
2023-05-05T23:54:28.675Z,98959.77
2023-05-05T23:59:30.683Z,98953.41
